This is the latest recevied weather packets stored in our database for station/object N1ICS-1. If no packets are shown the sender has not sent any weather packets the latest 10 day(s).
| Time | Temp. | Humidity | Pressure | Rain* | Wind** | Luminosity | Snow |
|---|---|---|---|---|---|---|---|
| 1777740002 | 7.78° C | 55% | 1020.4 hPa | 0 mm | - | 423 W/m² | - |
| 1777739702 | 8.33° C | 51% | 1020.5 hPa | 0 mm | - | 488 W/m² | - |
| 1777739402 | 8.33° C | 59% | 1020.5 hPa | 0 mm | - | 1067 W/m² | - |
| 1777739102 | 7.78° C | 56% | 1020.5 hPa | 0 mm | - | 456 W/m² | - |
| 1777738802 | 7.22° C | 53% | 1020.3 hPa | 0 mm | - | 465 W/m² | - |
| 1777738501 | 7.78° C | 59% | 1020.7 hPa | 0 mm | - | 439 W/m² | - |
| 1777738202 | 7.78° C | 58% | 1020.6 hPa | 0 mm | - | 353 W/m² | - |
| 1777737902 | 8.33° C | 61% | 1020.6 hPa | 0 mm | - | 1141 W/m² | - |
| 1777737602 | 8.33° C | 55% | 1020.5 hPa | 0 mm | - | 791 W/m² | - |
| 1777737301 | 7.22° C | 56% | 1020.6 hPa | 0 mm | - | 1044 W/m² | - |
| 1777737002 | 7.78° C | 59% | 1020.7 hPa | 0 mm | - | 1018 W/m² | - |
| 1777736701 | 7.78° C | 59% | 1020.7 hPa | 0 mm | - | 1020 W/m² | - |
| 1777736402 | 6.67° C | 64% | 1020.8 hPa | 0 mm | - | 975 W/m² | - |
| 1777736101 | 7.22° C | 59% | 1020.6 hPa | 0 mm | - | 819 W/m² | - |
| 1777735802 | 7.22° C | 59% | 1020.6 hPa | 0 mm | - | 934 W/m² | - |
| 1777735503 | 6.67° C | 63% | 1020.5 hPa | 0 mm | - | 930 W/m² | - |
| 1777735202 | 6.67° C | 62% | 1020.5 hPa | 0 mm | - | 821 W/m² | - |
| 1777734902 | 7.22° C | 63% | 1020.6 hPa | 0 mm | - | 948 W/m² | - |
| 1777734603 | 6.67° C | 67% | 1020.4 hPa | 0 mm | - | 932 W/m² | - |
| 1777734301 | 7.22° C | 65% | 1020.3 hPa | 0 mm | - | 672 W/m² | - |
| 1777734002 | 6.67° C | 70% | 1020.6 hPa | 0 mm | - | 884 W/m² | - |
| 1777733701 | 6.67° C | 65% | 1020.5 hPa | 0 mm | - | 827 W/m² | - |
| 1777733402 | 6.67° C | 67% | 1020.6 hPa | 0 mm | - | 795 W/m² | - |
| 1777733102 | 7.22° C | 67% | 1020.3 hPa | 0 mm | - | 811 W/m² | - |
| 1777732802 | 7.22° C | 69% | 1020.5 hPa | 0 mm | - | 786 W/m² | - |
* Rain latest hour (hover to see other rain measurements)
** Current wind speed in m/s (hover to see current wind gust speed)